createdAt,value
2023-05-01T01:05:13.013Z,15.00
2023-05-01T01:10:36.431Z,14.00
2023-05-01T02:26:05.272Z,15.00
2023-05-01T04:50:06.511Z,19.00
2023-05-01T05:00:19.388Z,20.50
2023-05-01T05:05:32.651Z,16.00
2023-05-01T05:10:43.443Z,18.00
2023-05-01T05:15:58.936Z,20.00
2023-05-01T05:21:09.147Z,18.00
2023-05-01T05:26:13.695Z,20.00
2023-05-01T05:31:24.691Z,17.00
2023-05-01T05:36:28.949Z,17.50
2023-05-01T05:46:37.492Z,17.00
2023-05-01T05:51:41.673Z,16.50
2023-05-01T05:56:45.672Z,13.00
2023-05-01T06:01:49.305Z,14.00
2023-05-01T06:06:52.828Z,15.00
2023-05-01T06:12:05.901Z,12.00
2023-05-01T06:17:09.154Z,16.00
2023-05-01T06:22:12.343Z,9.00
2023-05-01T06:27:22.636Z,12.00
2023-05-01T06:37:30.366Z,8.50
2023-05-01T06:42:33.581Z,6.00
2023-05-01T06:47:42.559Z,6.00
2023-05-01T06:52:46.334Z,7.00
2023-05-01T06:57:49.649Z,6.00
2023-05-01T07:02:53.925Z,5.00
2023-05-01T07:08:01.341Z,3.00
2023-05-01T07:13:05.224Z,6.00
2023-05-01T07:18:08.741Z,7.00
2023-05-01T07:23:12.122Z,8.00
2023-05-01T07:28:18.264Z,6.50
2023-05-01T07:33:21.674Z,5.00
2023-05-01T07:38:25.085Z,5.00
2023-05-01T07:43:28.283Z,4.00
2023-05-01T07:48:32.112Z,2.00
2023-05-01T07:53:35.852Z,5.00
2023-05-01T07:58:42.010Z,3.00
2023-05-01T08:03:48.022Z,3.00
2023-05-01T08:08:53.761Z,5.50
2023-05-01T08:13:57.007Z,6.00
2023-05-01T08:19:00.271Z,2.50
2023-05-01T08:24:03.916Z,4.00
2023-05-01T08:29:07.290Z,5.00
2023-05-01T08:34:10.664Z,7.00
2023-05-01T08:39:14.586Z,8.00
2023-05-01T08:44:20.689Z,7.00
2023-05-01T08:49:24.849Z,5.00
2023-05-01T08:54:28.246Z,6.00
2023-05-01T08:59:34.564Z,6.00
2023-05-01T09:19:49.996Z,1.00
2023-05-01T09:29:57.379Z,4.50
2023-05-01T09:35:13.717Z,7.50
2023-05-01T09:40:17.053Z,4.00
2023-05-01T09:45:20.617Z,6.00
2023-05-01T09:50:32.474Z,3.00
2023-05-01T09:55:35.786Z,5.00
2023-05-01T10:05:57.971Z,6.50
2023-05-01T10:11:06.072Z,3.50
2023-05-01T10:16:29.975Z,5.00
2023-05-01T10:21:34.210Z,1.00
2023-05-01T10:26:39.108Z,3.00
2023-05-01T10:31:42.805Z,5.00
2023-05-01T10:36:56.149Z,6.00
2023-05-01T10:47:35.001Z,6.00
2023-05-01T10:53:14.686Z,3.00
2023-05-01T10:58:53.243Z,6.00
